Flag for Australia

Past Weather in Rockhampton, Queensland, Australia — Yesterday and Last 2 Weeks

Currently: 88 °F. Scattered clouds. (Weather station: Rockhampton Airport, Australia). See more current weather

Past Weather in Rockhampton — Graph

°F

Rockhampton Temperature Yesterday

Maximum temperature yesterday: 86 °F (at 12:30 pm)
Minimum temperature yesterday: 72 °F (at 3:30 am)
Average temperature yesterday: 79 °F

High & Low Weather Summary for the Past Weeks

 TemperatureHumidityPressure
High95 °F (Jan 16, 1:30 pm)94% (Jan 16, 3:30 am)30.01 "Hg (Jan 16, 3:30 am)
Low68 °F (Jan 16, 4:30 am)29% (Jan 15, 1:30 pm)29.68 "Hg (Jan 15, 3:00 pm)
Average80 °F64%29.85 "Hg
* Reported Jan 11 10:30 am — Jan 26 10:30 am, Rockhampton. Weather by CustomWeather, © 2021

Note: Actual official high and low records may vary slightly from our data, if they occured in-between our weather recording intervals... More about our weather records

Rockhampton Weather History for the Previous 24 Hours

Scroll right to see more
 ConditionsComfort  
Time TempWeatherWind HumidityBarometerVisibility
10:30 am
Tue, Jan 26
86 °FSunny.3 mph49%29.74 "HgN/A
10:00 am86 °FSunny.6 mph59%29.74 "HgN/A
9:30 am86 °FSunny.6 mph55%29.77 "HgN/A
9:00 am82 °FScattered clouds.8 mph62%29.77 "HgN/A
8:30 am82 °FSunny.8 mph66%29.77 "HgN/A
8:00 am79 °FSunny.8 mph74%29.77 "HgN/A
7:30 am77 °FSunny.8 mph79%29.77 "HgN/A
7:00 am75 °FScattered clouds.6 mph78%29.77 "HgN/A
6:30 am73 °FSunny.7 mph83%29.74 "HgN/A
6:00 am73 °FSunny.8 mph83%29.74 "HgN/A
5:30 am73 °FClear.7 mph83%29.71 "HgN/A
5:00 am73 °FClear.7 mph83%29.71 "HgN/A
4:30 am73 °FClear.7 mph83%29.71 "HgN/A
4:00 am73 °FPassing clouds.6 mph83%29.71 "HgN/A
3:30 am73 °FMostly cloudy.5 mph83%29.71 "HgN/A
3:00 am73 °FPassing clouds.3 mph83%29.74 "HgN/A
2:30 am73 °FClear.5 mph83%29.71 "HgN/A
2:00 am75 °FClear.No wind83%29.74 "HgN/A
1:30 am75 °FClear.1 mph78%29.74 "HgN/A
1:00 am75 °FClear.5 mph83%29.74 "HgN/A
12:30 am75 °FClear.6 mph83%29.77 "HgN/A
12:00 am75 °FPassing clouds.6 mph83%29.77 "HgN/A
11:00 pm
Mon, Jan 25
77 °FPassing clouds.5 mph79%29.80 "HgN/A
10:30 pm77 °FPassing clouds.6 mph74%29.80 "HgN/A
10:00 pm77 °FOvercast.3 mph74%29.77 "HgN/A
9:30 pm77 °FPassing clouds.5 mph74%29.77 "HgN/A
9:00 pm77 °FPassing clouds.5 mph74%29.77 "HgN/A
8:30 pm79 °FClear.5 mph70%29.77 "HgN/A
8:00 pm79 °FClear.7 mph70%29.77 "HgN/A
7:30 pm79 °FClear.8 mph70%29.77 "HgN/A
7:00 pm79 °FClear.8 mph65%29.74 "HgN/A
6:30 pm81 °FSunny.9 mph66%29.74 "HgN/A
6:00 pm82 °FSunny.12 mph58%29.74 "HgN/A
5:30 pm82 °FSunny.13 mph58%29.71 "HgN/A
5:00 pm84 °FSunny.13 mph48%29.71 "HgN/A
4:30 pm84 °FSunny.13 mph51%29.71 "HgN/A
4:00 pm86 °FSunny.12 mph49%29.71 "HgN/A
3:30 pm86 °FSunny.12 mph49%29.71 "HgN/A
3:00 pm86 °FSunny.13 mph49%29.71 "HgN/A
2:30 pm86 °FScattered clouds.9 mph52%29.74 "HgN/A
2:00 pm86 °FScattered clouds.10 mph55%29.74 "HgN/A
1:30 pm84 °FBroken clouds.14 mph55%29.74 "HgN/A
1:00 pm84 °FBroken clouds.15 mph55%29.77 "HgN/A
12:30 pm86 °FBroken clouds.13 mph55%29.77 "HgN/A
12:00 pm82 °FBroken clouds.13 mph58%29.80 "HgN/A
11:30 am81 °FMostly cloudy.12 mph70%29.80 "HgN/A
11:00 am81 °FBroken clouds.10 mph70%29.83 "HgN/A
Weather by CustomWeather, © 2021

See weather overview